createdAt,value
2018-12-16T00:02:08.606Z,1.12
2018-12-16T00:04:38.093Z,1.22
2018-12-16T00:07:07.389Z,1.98
2018-12-16T00:09:36.585Z,1.87
2018-12-16T00:12:05.655Z,2.35
2018-12-16T00:14:34.371Z,2.25
2018-12-16T00:17:03.193Z,2.12
2018-12-16T00:19:32.120Z,2.05
2018-12-16T00:22:00.798Z,1.95
2018-12-16T00:24:29.448Z,1.82
2018-12-16T00:27:09.390Z,1.85
2018-12-16T00:29:38.274Z,1.30
2018-12-16T00:32:07.086Z,1.35
2018-12-16T00:34:36.325Z,1.65
2018-12-16T00:37:05.359Z,2.70
2018-12-16T00:39:34.081Z,2.77
2018-12-16T00:42:02.968Z,1.87
2018-12-16T00:44:31.728Z,2.12
2018-12-16T00:47:00.599Z,2.42
2018-12-16T00:49:29.415Z,2.05
2018-12-16T00:51:58.706Z,1.90
2018-12-16T00:54:28.358Z,1.70
2018-12-16T00:56:57.738Z,1.80
2018-12-16T00:59:26.826Z,1.80
2018-12-16T01:01:55.597Z,1.40
2018-12-16T01:04:24.541Z,1.92
2018-12-16T01:06:53.196Z,1.10
2018-12-16T01:09:22.111Z,1.00
2018-12-16T01:11:50.754Z,1.07
2018-12-16T01:14:19.560Z,0.85
2018-12-16T01:16:48.538Z,1.00
2018-12-16T01:19:17.234Z,0.70
2018-12-16T01:21:46.214Z,1.25
2018-12-16T01:24:14.991Z,1.00
2018-12-16T01:26:43.941Z,1.00
2018-12-16T01:29:12.622Z,0.53
2018-12-16T01:31:41.794Z,0.70
2018-12-16T01:34:10.510Z,0.90
2018-12-16T01:36:39.779Z,0.80
2018-12-16T01:39:08.601Z,0.70
2018-12-16T01:41:37.609Z,0.50
2018-12-16T01:44:06.345Z,0.85
2018-12-16T01:46:35.162Z,0.80
2018-12-16T01:49:04.981Z,0.80
2018-12-16T01:51:33.966Z,0.65
2018-12-16T01:54:02.632Z,0.90
2018-12-16T01:56:31.445Z,0.40
2018-12-16T01:59:00.257Z,0.62
2018-12-16T02:01:29.127Z,0.95
2018-12-16T02:03:58.153Z,1.20
2018-12-16T02:06:26.978Z,0.50
2018-12-16T02:08:56.301Z,0.70
2018-12-16T02:11:25.103Z,0.70
2018-12-16T02:13:54.035Z,0.70
2018-12-16T02:16:22.715Z,0.70
2018-12-16T02:18:51.470Z,0.55
2018-12-16T02:21:20.505Z,0.62
2018-12-16T02:23:49.155Z,0.60
2018-12-16T02:26:18.131Z,0.85
2018-12-16T02:28:47.055Z,0.72
2018-12-16T02:31:15.737Z,0.42
2018-12-16T02:33:44.399Z,0.75
2018-12-16T02:36:13.135Z,0.57
2018-12-16T02:38:42.661Z,0.60
2018-12-16T02:41:11.405Z,0.50
2018-12-16T02:43:40.212Z,0.53
2018-12-16T02:46:09.763Z,0.80
2018-12-16T02:48:38.900Z,0.50
2018-12-16T02:51:07.889Z,0.72
2018-12-16T02:53:36.514Z,0.70
2018-12-16T02:56:05.521Z,0.70
2018-12-16T02:58:34.427Z,0.75
2018-12-16T03:01:03.626Z,0.70
2018-12-16T03:03:32.373Z,0.72
2018-12-16T03:06:01.457Z,0.90
2018-12-16T03:08:30.260Z,1.00
2018-12-16T03:10:59.182Z,0.50
2018-12-16T03:13:27.823Z,0.62
2018-12-16T03:15:56.712Z,0.85
2018-12-16T03:18:25.403Z,0.72
2018-12-16T03:20:54.136Z,0.95
2018-12-16T03:23:22.986Z,0.70
2018-12-16T03:25:51.748Z,0.80
2018-12-16T03:28:20.613Z,0.90
2018-12-16T03:30:49.218Z,0.60
2018-12-16T03:33:17.901Z,1.00
2018-12-16T03:35:46.623Z,0.60
2018-12-16T03:38:15.396Z,0.53
2018-12-16T03:40:44.035Z,0.68
2018-12-16T03:43:12.747Z,0.70
2018-12-16T03:45:41.697Z,0.60
2018-12-16T03:48:10.578Z,0.75
2018-12-16T03:50:39.405Z,0.85
2018-12-16T03:53:08.226Z,0.70
2018-12-16T03:55:37.142Z,0.70
2018-12-16T03:58:05.883Z,0.65
2018-12-16T04:00:34.603Z,0.82
2018-12-16T04:03:03.211Z,0.57
2018-12-16T04:05:31.847Z,0.57
2018-12-16T04:08:00.895Z,0.53
2018-12-16T04:10:29.882Z,0.93
2018-12-16T04:12:58.948Z,0.82
2018-12-16T04:15:27.879Z,0.60
2018-12-16T04:17:56.858Z,0.75
2018-12-16T04:20:25.513Z,0.53
2018-12-16T04:22:54.226Z,0.80
2018-12-16T04:25:23.804Z,0.62
2018-12-16T04:27:52.789Z,0.98
2018-12-16T04:30:21.587Z,0.80
2018-12-16T04:32:50.244Z,0.50
2018-12-16T04:35:19.000Z,0.82
2018-12-16T04:37:48.132Z,0.90
2018-12-16T04:40:17.105Z,0.70
2018-12-16T04:42:45.740Z,0.75
2018-12-16T04:45:15.361Z,0.80
2018-12-16T04:47:44.350Z,1.20
2018-12-16T04:50:13.230Z,0.90
2018-12-16T04:52:42.590Z,0.70
2018-12-16T04:55:11.811Z,1.30
2018-12-16T04:57:40.651Z,0.72
2018-12-16T05:00:10.223Z,0.80
2018-12-16T05:02:39.011Z,1.05
2018-12-16T05:05:07.868Z,0.78
2018-12-16T05:07:36.862Z,1.17
2018-12-16T05:10:16.675Z,1.00
2018-12-16T05:12:45.833Z,0.75
2018-12-16T05:15:14.752Z,0.80
2018-12-16T05:17:43.770Z,0.70
2018-12-16T05:20:12.938Z,1.02
2018-12-16T05:22:41.918Z,1.07
2018-12-16T05:25:10.828Z,0.90
2018-12-16T05:27:39.676Z,1.00
2018-12-16T05:30:09.118Z,1.35
2018-12-16T05:32:38.075Z,1.62
2018-12-16T05:35:06.996Z,1.87
2018-12-16T05:37:35.730Z,1.77
2018-12-16T05:40:04.972Z,1.87
2018-12-16T05:42:33.764Z,1.40
2018-12-16T05:45:02.800Z,1.60
2018-12-16T05:47:31.535Z,1.40
2018-12-16T05:50:01.117Z,1.42
2018-12-16T05:52:30.211Z,1.52
2018-12-16T05:54:59.608Z,1.20
2018-12-16T05:57:28.639Z,1.32
2018-12-16T05:59:57.725Z,1.20
2018-12-16T06:02:26.876Z,1.15
2018-12-16T06:04:56.129Z,0.82
2018-12-16T06:07:25.107Z,0.95
2018-12-16T06:09:54.123Z,0.90
2018-12-16T06:12:23.285Z,1.07
2018-12-16T06:14:52.312Z,1.05
2018-12-16T06:17:21.349Z,1.40
2018-12-16T06:19:50.547Z,1.27
2018-12-16T06:22:19.300Z,1.20
2018-12-16T06:24:48.200Z,1.20
2018-12-16T06:27:17.055Z,1.60
2018-12-16T06:29:46.271Z,1.80
2018-12-16T06:32:15.317Z,1.43
2018-12-16T06:34:44.386Z,1.67
2018-12-16T06:37:13.246Z,1.53
2018-12-16T06:39:42.782Z,1.20
2018-12-16T06:42:11.788Z,1.12
2018-12-16T06:44:40.531Z,1.40
2018-12-16T06:47:09.255Z,1.23
2018-12-16T06:49:37.938Z,1.20
2018-12-16T06:52:07.108Z,1.33
2018-12-16T06:54:35.869Z,1.50
2018-12-16T06:57:04.549Z,1.90
2018-12-16T06:59:33.301Z,4.27
2018-12-16T07:02:02.101Z,2.07
2018-12-16T07:04:30.860Z,1.63
2018-12-16T07:06:59.850Z,2.20
2018-12-16T07:09:31.544Z,2.50
2018-12-16T07:12:00.884Z,2.90
2018-12-16T07:14:30.152Z,2.63
2018-12-16T07:16:59.214Z,2.57
2018-12-16T07:19:28.149Z,2.20
2018-12-16T07:21:57.043Z,2.33
2018-12-16T07:24:25.870Z,2.53
2018-12-16T07:26:54.601Z,2.83
2018-12-16T07:29:23.589Z,3.10
2018-12-16T07:31:52.420Z,2.10
2018-12-16T07:34:21.409Z,3.60
2018-12-16T07:36:50.316Z,2.50
2018-12-16T07:39:19.305Z,2.70
2018-12-16T07:41:48.366Z,2.30
2018-12-16T07:44:17.211Z,2.30
2018-12-16T07:46:46.067Z,2.67
2018-12-16T07:49:15.076Z,3.47
2018-12-16T07:51:44.077Z,3.27
2018-12-16T07:54:16.068Z,1.60
2018-12-16T07:56:44.125Z,1.73
2018-12-16T07:59:13.018Z,1.63
2018-12-16T08:01:41.966Z,1.20
2018-12-16T08:04:10.786Z,1.70
2018-12-16T08:06:39.700Z,1.47
2018-12-16T08:09:09.702Z,1.50
2018-12-16T08:11:38.784Z,2.03
2018-12-16T08:14:07.705Z,1.87
2018-12-16T08:16:36.735Z,2.23
2018-12-16T08:19:07.132Z,2.53
2018-12-16T08:21:36.072Z,2.47
2018-12-16T08:24:04.961Z,2.57
2018-12-16T08:26:33.644Z,2.50
2018-12-16T08:29:02.539Z,2.33
2018-12-16T08:31:31.213Z,2.30
2018-12-16T08:33:59.951Z,2.50
2018-12-16T08:36:28.717Z,2.13
2018-12-16T08:38:57.556Z,2.50
2018-12-16T08:41:26.374Z,2.03
2018-12-16T08:43:55.069Z,2.03
2018-12-16T08:46:24.146Z,1.93
2018-12-16T08:48:53.671Z,2.17
2018-12-16T08:51:22.505Z,2.30
2018-12-16T08:53:51.427Z,2.10
2018-12-16T08:56:20.479Z,2.40
2018-12-16T08:58:49.365Z,2.20
2018-12-16T09:01:18.042Z,2.17
2018-12-16T09:03:47.716Z,2.50
2018-12-16T09:06:16.426Z,2.27
2018-12-16T09:08:45.717Z,2.50
2018-12-16T09:11:14.511Z,2.50
2018-12-16T09:13:43.281Z,2.57
2018-12-16T09:16:12.000Z,2.70
2018-12-16T09:18:40.742Z,2.47
2018-12-16T09:21:09.577Z,3.10
2018-12-16T09:23:38.676Z,2.73
2018-12-16T09:26:07.677Z,2.83
2018-12-16T09:28:36.360Z,2.70
2018-12-16T09:31:05.146Z,3.03
2018-12-16T09:33:34.188Z,2.73
2018-12-16T09:36:03.048Z,3.50
2018-12-16T09:38:31.789Z,3.40
2018-12-16T09:41:00.675Z,3.30
2018-12-16T09:43:29.417Z,3.43
2018-12-16T09:45:58.251Z,3.20
2018-12-16T09:48:28.210Z,3.43
2018-12-16T09:50:56.954Z,3.67
2018-12-16T09:53:26.394Z,4.40
2018-12-16T09:55:55.649Z,3.97
2018-12-16T09:58:24.418Z,3.43
2018-12-16T10:00:53.055Z,3.50
2018-12-16T10:03:22.066Z,3.00
2018-12-16T10:05:50.866Z,3.43
2018-12-16T10:08:19.559Z,3.13
2018-12-16T10:10:48.399Z,3.20
2018-12-16T10:13:17.135Z,3.23
2018-12-16T10:15:46.127Z,3.03
2018-12-16T10:18:14.821Z,3.73
2018-12-16T10:20:43.702Z,3.50
2018-12-16T10:23:12.668Z,3.37
2018-12-16T10:25:41.598Z,3.87
2018-12-16T10:28:11.506Z,3.73
2018-12-16T10:30:40.287Z,3.53
2018-12-16T10:33:09.123Z,4.30
2018-12-16T10:35:38.015Z,3.73
2018-12-16T10:38:07.318Z,4.10
2018-12-16T10:40:36.048Z,4.23
2018-12-16T10:43:04.817Z,3.57
2018-12-16T10:45:34.436Z,3.67
2018-12-16T10:48:03.358Z,3.10
2018-12-16T10:50:32.119Z,3.10
2018-12-16T10:53:00.954Z,3.30
2018-12-16T10:55:29.646Z,3.40
2018-12-16T10:57:58.490Z,3.00
2018-12-16T11:00:32.373Z,3.17
2018-12-16T11:03:01.990Z,3.13
2018-12-16T11:05:31.024Z,2.97
2018-12-16T11:07:59.697Z,3.40
2018-12-16T11:10:28.851Z,4.13
2018-12-16T11:12:57.926Z,3.27
2018-12-16T11:15:26.810Z,3.53
2018-12-16T11:17:55.487Z,3.33
2018-12-16T11:20:24.302Z,3.53
2018-12-16T11:22:52.899Z,3.37
2018-12-16T11:25:21.640Z,4.23
2018-12-16T11:27:50.396Z,3.90
2018-12-16T11:30:19.336Z,4.10
2018-12-16T11:32:48.317Z,4.37
2018-12-16T11:35:17.082Z,4.10
2018-12-16T11:37:45.868Z,3.87
2018-12-16T11:40:14.639Z,4.20
2018-12-16T11:43:46.655Z,3.80
2018-12-16T11:46:15.958Z,4.50
2018-12-16T11:48:44.665Z,4.00
2018-12-16T11:51:13.724Z,4.20
2018-12-16T11:53:43.132Z,3.70
2018-12-16T11:56:11.840Z,3.53
2018-12-16T11:58:40.651Z,4.50
2018-12-16T12:01:09.407Z,3.90
2018-12-16T12:03:38.380Z,4.67
2018-12-16T12:06:07.096Z,4.40
2018-12-16T12:08:35.856Z,4.70
2018-12-16T12:11:04.716Z,4.97
2018-12-16T12:13:33.336Z,5.37
2018-12-16T12:16:02.086Z,6.00
2018-12-16T12:18:31.429Z,5.30
2018-12-16T12:21:00.486Z,4.23
2018-12-16T12:23:29.345Z,3.43
2018-12-16T12:25:58.370Z,3.60
2018-12-16T12:28:27.533Z,3.30
2018-12-16T12:30:56.596Z,2.97
2018-12-16T12:33:25.721Z,3.03
2018-12-16T12:35:54.647Z,2.70
2018-12-16T12:38:23.467Z,3.37
2018-12-16T12:40:52.506Z,2.83
2018-12-16T12:43:21.221Z,2.83
2018-12-16T12:45:50.261Z,3.43
2018-12-16T12:48:19.454Z,3.10
2018-12-16T12:50:48.272Z,3.20
2018-12-16T12:53:17.695Z,3.10
2018-12-16T12:55:46.616Z,3.47
2018-12-16T12:58:15.702Z,3.50
2018-12-16T13:00:44.616Z,4.30
2018-12-16T13:03:13.755Z,3.97
2018-12-16T13:05:42.811Z,3.50
2018-12-16T13:08:11.940Z,3.80
2018-12-16T13:10:41.148Z,3.40
2018-12-16T13:13:10.441Z,3.67
2018-12-16T13:15:39.969Z,3.57
2018-12-16T13:18:09.287Z,3.30
2018-12-16T13:20:38.317Z,3.60
2018-12-16T13:23:07.106Z,3.30
2018-12-16T13:25:47.032Z,3.90
2018-12-16T13:28:16.265Z,5.80
2018-12-16T13:30:44.972Z,4.63
2018-12-16T13:33:14.031Z,5.00
2018-12-16T13:35:43.149Z,3.90
2018-12-16T13:38:12.688Z,4.10
2018-12-16T13:40:41.783Z,4.23
2018-12-16T13:43:10.767Z,3.83
2018-12-16T13:45:39.640Z,3.40
2018-12-16T13:48:08.801Z,3.40
2018-12-16T13:50:38.020Z,3.57
2018-12-16T13:53:07.206Z,4.13
2018-12-16T13:55:40.832Z,4.17
2018-12-16T13:58:07.261Z,3.33
2018-12-16T14:00:36.489Z,3.10
2018-12-16T14:03:05.334Z,3.87
2018-12-16T14:05:34.338Z,3.27
2018-12-16T14:08:03.429Z,3.20
2018-12-16T14:10:32.241Z,2.90
2018-12-16T14:13:01.239Z,2.87
2018-12-16T14:15:30.603Z,3.00
2018-12-16T14:17:59.486Z,2.90
2018-12-16T14:20:28.635Z,2.80
2018-12-16T14:22:57.780Z,3.43
2018-12-16T14:25:26.519Z,2.80
2018-12-16T14:27:55.689Z,3.40
2018-12-16T14:30:24.661Z,2.50
2018-12-16T14:32:53.479Z,3.07
2018-12-16T14:35:23.006Z,2.70
2018-12-16T14:37:52.072Z,2.77
2018-12-16T14:40:21.131Z,2.43
2018-12-16T14:42:50.169Z,2.50
2018-12-16T14:45:19.165Z,2.83
2018-12-16T14:47:48.522Z,2.40
2018-12-16T14:50:17.562Z,2.60
2018-12-16T14:52:46.451Z,2.70
2018-12-16T14:55:16.030Z,2.93
2018-12-16T14:57:44.967Z,2.77
2018-12-16T15:00:14.221Z,2.73
2018-12-16T15:02:43.107Z,2.47
2018-12-16T15:05:11.953Z,2.93
2018-12-16T15:07:40.958Z,2.50
2018-12-16T15:10:11.265Z,1.97
2018-12-16T15:12:40.250Z,2.77
2018-12-16T15:15:09.240Z,2.77
2018-12-16T15:17:42.646Z,2.87
2018-12-16T15:20:09.703Z,4.27
2018-12-16T15:22:39.023Z,3.90
2018-12-16T15:25:08.362Z,5.20
2018-12-16T15:27:37.205Z,4.70
2018-12-16T15:30:08.593Z,4.90
2018-12-16T15:32:37.386Z,3.63
2018-12-16T15:35:06.635Z,2.60
2018-12-16T15:37:35.641Z,2.87
2018-12-16T15:40:06.465Z,2.60
2018-12-16T15:42:35.362Z,2.20
2018-12-16T15:45:04.427Z,2.13
2018-12-16T15:47:33.137Z,2.03
2018-12-16T15:50:02.248Z,2.63
2018-12-16T15:52:30.925Z,3.30
2018-12-16T15:54:59.946Z,3.03
2018-12-16T15:57:28.705Z,3.30
2018-12-16T15:59:58.586Z,3.53
2018-12-16T16:02:27.477Z,3.20
2018-12-16T16:04:56.554Z,3.67
2018-12-16T16:07:25.437Z,3.47
2018-12-16T16:09:54.438Z,3.23
2018-12-16T16:12:23.233Z,3.83
2018-12-16T16:14:52.015Z,3.33
2018-12-16T16:17:20.872Z,3.77
2018-12-16T16:19:49.729Z,3.40
2018-12-16T16:22:18.526Z,3.30
2018-12-16T16:24:47.342Z,3.53
2018-12-16T16:27:16.902Z,2.90
2018-12-16T16:29:45.724Z,3.13
2018-12-16T16:32:14.741Z,3.10
2018-12-16T16:34:43.570Z,3.17
2018-12-16T16:37:12.690Z,3.70
2018-12-16T16:39:41.383Z,3.20
2018-12-16T16:42:10.263Z,3.07
2018-12-16T16:44:39.036Z,3.23
2018-12-16T16:47:07.862Z,3.63
2018-12-16T16:49:37.616Z,3.77
2018-12-16T16:52:06.391Z,3.23
2018-12-16T16:54:35.180Z,3.63
2018-12-16T16:57:04.043Z,3.70
2018-12-16T16:59:32.881Z,3.90
2018-12-16T17:02:01.711Z,3.47
2018-12-16T17:04:30.642Z,4.03
2018-12-16T17:06:59.460Z,4.37
2018-12-16T17:09:28.293Z,5.50
2018-12-16T17:11:57.562Z,6.40
2018-12-16T17:14:26.431Z,7.77
2018-12-16T17:16:55.305Z,6.63
2018-12-16T17:19:24.110Z,6.80
2018-12-16T17:21:53.952Z,8.13
2018-12-16T17:24:22.734Z,7.37
2018-12-16T17:26:51.541Z,6.63
2018-12-16T17:29:20.399Z,5.87
2018-12-16T17:31:49.325Z,6.57
2018-12-16T17:34:18.262Z,6.23
2018-12-16T17:36:47.205Z,6.37
2018-12-16T17:39:16.060Z,6.27
2018-12-16T17:41:45.367Z,6.47
2018-12-16T17:44:14.448Z,5.73
2018-12-16T17:46:43.454Z,4.07
2018-12-16T17:49:12.875Z,3.90
2018-12-16T17:51:42.023Z,3.33
2018-12-16T17:54:10.989Z,3.53
2018-12-16T17:56:39.935Z,3.60
2018-12-16T17:59:08.735Z,3.77
2018-12-16T18:01:37.817Z,3.60
2018-12-16T18:04:10.304Z,3.80
2018-12-16T18:06:39.452Z,3.37
2018-12-16T18:09:09.266Z,3.87
2018-12-16T18:11:39.746Z,3.90
2018-12-16T18:14:09.233Z,3.90
2018-12-16T18:16:38.455Z,3.80
2018-12-16T18:19:07.856Z,3.90
2018-12-16T18:21:37.103Z,3.47
2018-12-16T18:24:06.293Z,4.03
2018-12-16T18:26:35.673Z,3.80
2018-12-16T18:29:04.890Z,4.10
2018-12-16T18:31:34.347Z,4.50
2018-12-16T18:34:03.170Z,3.90
2018-12-16T18:36:32.159Z,4.43
2018-12-16T18:39:01.186Z,4.30
2018-12-16T18:41:30.060Z,4.60
2018-12-16T18:43:59.266Z,4.07
2018-12-16T18:46:28.048Z,4.57
2018-12-16T18:48:56.994Z,4.10
2018-12-16T18:54:00.704Z,3.30
2018-12-16T18:56:29.668Z,3.30
2018-12-16T18:58:58.886Z,3.17
2018-12-16T19:01:28.122Z,2.93
2018-12-16T19:03:57.164Z,3.17
2018-12-16T19:06:26.602Z,2.73
2018-12-16T19:08:56.686Z,2.80
2018-12-16T19:11:25.786Z,3.30
2018-12-16T19:13:55.039Z,3.57
2018-12-16T19:16:25.439Z,3.23
2018-12-16T19:18:55.218Z,3.80
2018-12-16T19:21:24.545Z,4.10
2018-12-16T19:23:53.955Z,4.87
2018-12-16T19:26:23.214Z,3.90
2018-12-16T19:28:52.587Z,3.70
2018-12-16T19:31:21.925Z,4.20
2018-12-16T19:33:51.432Z,4.47
2018-12-16T19:36:20.794Z,4.57
2018-12-16T19:38:50.058Z,4.93
2018-12-16T19:41:19.426Z,4.70
2018-12-16T19:43:48.669Z,5.20
2018-12-16T19:46:17.954Z,4.77
2018-12-16T19:48:47.396Z,5.13
2018-12-16T19:51:17.516Z,5.23
2018-12-16T19:53:47.063Z,5.37
2018-12-16T19:56:16.929Z,4.83
2018-12-16T19:58:46.376Z,4.40
2018-12-16T20:01:15.784Z,4.20
2018-12-16T20:03:50.057Z,4.40
2018-12-16T20:06:24.524Z,4.57
2018-12-16T20:08:53.883Z,4.73
2018-12-16T20:11:23.131Z,5.03
2018-12-16T20:13:52.394Z,4.90
2018-12-16T20:16:21.661Z,5.30
2018-12-16T20:18:50.965Z,5.43
2018-12-16T20:21:20.388Z,7.07
2018-12-16T20:23:50.048Z,4.57
2018-12-16T20:26:19.531Z,4.60
2018-12-16T20:28:48.855Z,4.07
2018-12-16T20:31:18.250Z,4.00
2018-12-16T20:33:47.499Z,3.80
2018-12-16T20:36:16.814Z,4.23
2018-12-16T20:38:46.337Z,3.80
2018-12-16T20:41:15.478Z,3.90
2018-12-16T20:43:45.414Z,3.87
2018-12-16T20:46:14.888Z,4.10
2018-12-16T20:48:44.497Z,4.03
2018-12-16T20:51:14.177Z,5.43
2018-12-16T20:53:43.835Z,6.43
2018-12-16T20:56:13.224Z,4.50
2018-12-16T20:58:42.349Z,4.07
2018-12-16T21:01:11.662Z,4.50
2018-12-16T21:03:41.039Z,4.57
2018-12-16T21:06:10.570Z,4.57
2018-12-16T21:08:40.036Z,5.30
2018-12-16T21:11:14.797Z,4.80
2018-12-16T21:13:48.860Z,4.90
2018-12-16T21:16:22.771Z,4.57
2018-12-16T21:18:51.686Z,5.10
2018-12-16T21:21:20.723Z,5.20
2018-12-16T21:23:49.762Z,4.93
2018-12-16T21:26:18.577Z,4.90
2018-12-16T21:28:47.316Z,4.87
2018-12-16T21:31:16.271Z,5.23
2018-12-16T21:33:45.144Z,4.83
2018-12-16T21:36:14.445Z,4.93
2018-12-16T21:38:43.752Z,5.20
2018-12-16T21:41:12.646Z,5.07
2018-12-16T21:43:41.443Z,5.80
2018-12-16T21:46:10.532Z,4.73
2018-12-16T21:48:39.626Z,4.90
2018-12-16T21:51:08.714Z,5.20
2018-12-16T21:53:38.261Z,5.70
2018-12-16T21:56:06.971Z,4.97
2018-12-16T21:58:35.907Z,5.27
2018-12-16T22:01:04.781Z,5.13
2018-12-16T22:03:34.619Z,4.87
2018-12-16T22:06:03.353Z,5.37
2018-12-16T22:08:32.503Z,5.00
2018-12-16T22:11:01.350Z,5.00
2018-12-16T22:13:30.227Z,4.70
2018-12-16T22:15:59.131Z,5.00
2018-12-16T22:18:27.999Z,5.30
2018-12-16T22:20:57.146Z,5.47
2018-12-16T22:23:26.263Z,5.10
2018-12-16T22:25:55.313Z,5.00
2018-12-16T22:28:24.378Z,5.23
2018-12-16T22:30:53.703Z,5.77
2018-12-16T22:33:22.485Z,5.20
2018-12-16T22:35:51.423Z,5.33
2018-12-16T22:38:21.690Z,5.97
2018-12-16T22:40:50.497Z,5.47
2018-12-16T22:43:19.461Z,5.37
2018-12-16T22:45:49.146Z,5.40
2018-12-16T22:48:18.113Z,5.30
2018-12-16T22:50:47.146Z,5.87
2018-12-16T22:53:15.903Z,6.23
2018-12-16T22:55:44.679Z,6.40
2018-12-16T22:58:13.741Z,6.20
2018-12-16T23:00:48.328Z,6.93
2018-12-16T23:03:17.602Z,5.97
2018-12-16T23:05:46.644Z,5.83
2018-12-16T23:08:16.170Z,6.07
2018-12-16T23:10:45.940Z,5.57
2018-12-16T23:13:15.601Z,5.40
2018-12-16T23:15:44.598Z,6.43
2018-12-16T23:18:13.340Z,5.93
2018-12-16T23:20:42.815Z,6.17
2018-12-16T23:23:11.802Z,6.67
2018-12-16T23:25:40.622Z,6.10
2018-12-16T23:28:09.606Z,7.10
2018-12-16T23:30:38.350Z,6.47
2018-12-16T23:33:07.177Z,6.47
2018-12-16T23:35:35.869Z,6.30
2018-12-16T23:38:04.590Z,7.03
2018-12-16T23:40:33.393Z,7.23
2018-12-16T23:43:02.328Z,6.00
2018-12-16T23:45:31.288Z,6.10
2018-12-16T23:48:00.575Z,6.97
2018-12-16T23:50:29.408Z,6.27
2018-12-16T23:52:58.534Z,5.93
2018-12-16T23:55:27.208Z,6.43
2018-12-16T23:58:00.986Z,6.70
